createdAt,value
2018-03-06T00:02:25.236Z,24.13
2018-03-06T00:04:52.846Z,25.53
2018-03-06T00:07:20.436Z,24.30
2018-03-06T00:09:48.104Z,21.87
2018-03-06T00:12:15.703Z,22.03
2018-03-06T00:14:44.060Z,20.30
2018-03-06T00:17:11.738Z,18.40
2018-03-06T00:19:39.372Z,20.37
2018-03-06T00:24:46.674Z,21.50
2018-03-06T00:27:14.318Z,20.67
2018-03-06T00:29:41.936Z,22.20
2018-03-06T00:32:09.546Z,24.43
2018-03-06T00:34:37.125Z,19.73
2018-03-06T00:37:05.504Z,25.57
2018-03-06T00:39:33.854Z,23.33
2018-03-06T00:42:01.440Z,20.43
2018-03-06T00:44:29.042Z,24.00
2018-03-06T00:46:56.881Z,21.20
2018-03-06T00:49:25.265Z,21.50
2018-03-06T00:51:53.636Z,24.33
2018-03-06T00:54:22.026Z,21.70
2018-03-06T00:56:50.368Z,23.90
2018-03-06T00:59:18.005Z,23.33
2018-03-06T01:01:45.615Z,19.83
2018-03-06T01:04:14.007Z,24.20
2018-03-06T01:06:41.603Z,21.20
2018-03-06T01:09:09.203Z,27.90
2018-03-06T01:11:36.826Z,22.83
2018-03-06T01:14:04.420Z,23.70
2018-03-06T01:16:32.811Z,66.10
2018-03-06T01:19:01.198Z,22.37
2018-03-06T01:21:28.794Z,22.20
2018-03-06T01:23:56.419Z,21.03
2018-03-06T01:26:23.993Z,19.97
2018-03-06T01:28:51.610Z,23.90
2018-03-06T01:31:19.197Z,26.67
2018-03-06T01:33:46.815Z,22.50
2018-03-06T01:36:14.442Z,23.93
2018-03-06T01:38:42.105Z,21.90
2018-03-06T01:41:09.710Z,26.40
2018-03-06T01:43:37.298Z,24.70
2018-03-06T01:46:05.616Z,26.30
2018-03-06T01:48:33.243Z,28.20
2018-03-06T01:51:00.844Z,26.73
2018-03-06T01:53:28.441Z,26.00
2018-03-06T01:55:56.797Z,28.40
2018-03-06T01:58:24.370Z,24.70
2018-03-06T02:00:51.976Z,23.00
2018-03-06T02:03:19.585Z,26.17
2018-03-06T02:05:47.203Z,24.27
2018-03-06T02:08:14.823Z,31.30
2018-03-06T02:10:43.181Z,24.63
2018-03-06T02:13:10.778Z,26.03
2018-03-06T02:15:38.361Z,24.90
2018-03-06T02:18:05.970Z,23.90
2018-03-06T02:20:34.324Z,28.97
2018-03-06T02:23:02.165Z,30.40
2018-03-06T02:25:29.816Z,30.47
2018-03-06T02:27:57.398Z,31.20
2018-03-06T02:30:25.023Z,23.93
2018-03-06T02:32:52.622Z,32.87
2018-03-06T02:35:20.187Z,29.43
2018-03-06T02:37:47.797Z,26.97
2018-03-06T02:40:15.373Z,26.87
2018-03-06T02:42:42.983Z,26.73
2018-03-06T02:45:10.626Z,32.37
2018-03-06T02:47:38.204Z,29.03
2018-03-06T02:50:05.796Z,25.17
2018-03-06T02:52:33.384Z,32.33
2018-03-06T02:55:01.023Z,23.57
2018-03-06T02:57:28.602Z,22.90
2018-03-06T02:59:56.204Z,29.50
2018-03-06T03:02:24.593Z,26.60
2018-03-06T03:04:52.934Z,30.33
2018-03-06T03:07:20.556Z,27.93
2018-03-06T03:09:48.156Z,29.33
2018-03-06T03:12:15.731Z,23.03
2018-03-06T03:14:44.124Z,30.00
2018-03-06T03:17:14.524Z,28.87
2018-03-06T03:19:42.130Z,29.97
2018-03-06T03:22:09.713Z,28.10
2018-03-06T03:24:37.281Z,28.67
2018-03-06T03:27:04.894Z,26.90
2018-03-06T03:29:33.246Z,23.47
2018-03-06T03:32:01.929Z,31.13
2018-03-06T03:34:29.523Z,26.07
2018-03-06T03:36:57.139Z,28.20
2018-03-06T03:39:24.760Z,28.60
2018-03-06T03:41:52.361Z,27.10
2018-03-06T03:44:20.245Z,25.83
2018-03-06T03:46:48.587Z,26.60
2018-03-06T03:49:16.432Z,32.43
2018-03-06T03:51:44.051Z,30.80
2018-03-06T03:54:12.406Z,26.47
2018-03-06T03:56:40.310Z,29.77
2018-03-06T03:59:07.929Z,29.27
2018-03-06T04:01:35.549Z,29.23
2018-03-06T04:04:03.197Z,28.37
2018-03-06T04:06:30.802Z,35.40
2018-03-06T04:08:58.438Z,30.87
2018-03-06T04:11:26.787Z,31.03
2018-03-06T04:13:54.363Z,26.13
2018-03-06T04:16:21.957Z,32.33
2018-03-06T04:18:49.568Z,32.40
2018-03-06T04:21:17.414Z,32.40
2018-03-06T04:23:45.785Z,38.13
2018-03-06T04:26:13.347Z,33.10
2018-03-06T04:28:41.860Z,34.73
2018-03-06T04:31:09.487Z,34.50
2018-03-06T04:33:37.861Z,34.33
2018-03-06T04:36:05.471Z,35.83
2018-03-06T04:38:33.077Z,39.90
2018-03-06T04:41:00.762Z,34.00
2018-03-06T04:43:29.142Z,42.33
2018-03-06T04:45:57.484Z,40.20
2018-03-06T04:48:25.101Z,37.03
2018-03-06T04:50:53.015Z,37.07
2018-03-06T04:53:20.585Z,38.93
2018-03-06T04:55:48.208Z,39.97
2018-03-06T04:58:15.799Z,37.37
2018-03-06T05:00:43.374Z,39.70
2018-03-06T05:03:11.758Z,42.07
2018-03-06T05:05:40.094Z,42.03
2018-03-06T05:08:07.674Z,41.83
2018-03-06T05:10:36.057Z,42.87
2018-03-06T05:13:04.424Z,42.20
2018-03-06T05:15:32.806Z,46.53
2018-03-06T05:18:00.385Z,41.90
2018-03-06T05:20:28.733Z,37.70
2018-03-06T05:22:56.341Z,40.37
2018-03-06T05:25:23.910Z,46.93
2018-03-06T05:27:51.531Z,36.53
2018-03-06T05:30:19.879Z,48.07
2018-03-06T05:32:47.470Z,40.47
2018-03-06T05:35:15.853Z,42.50
2018-03-06T05:37:44.218Z,45.63
2018-03-06T05:40:12.571Z,45.73
2018-03-06T05:42:40.193Z,43.50
2018-03-06T05:45:07.796Z,51.27
2018-03-06T05:47:36.923Z,49.03
2018-03-06T05:50:05.290Z,42.17
2018-03-06T05:52:33.625Z,47.47
2018-03-06T05:55:01.220Z,53.73
2018-03-06T05:57:28.813Z,50.33
2018-03-06T05:59:56.434Z,43.83
2018-03-06T06:02:24.803Z,49.10
2018-03-06T06:04:52.379Z,50.90
2018-03-06T06:07:20.771Z,48.10
2018-03-06T06:09:49.125Z,46.73
2018-03-06T06:12:16.761Z,48.90
2018-03-06T06:14:44.361Z,46.13
2018-03-06T06:17:11.935Z,47.47
2018-03-06T06:19:40.293Z,41.70
2018-03-06T06:22:07.875Z,40.17
2018-03-06T06:24:36.271Z,43.40
2018-03-06T06:27:03.860Z,49.17
2018-03-06T06:29:31.449Z,42.30
2018-03-06T06:31:59.058Z,43.90
2018-03-06T06:34:26.638Z,54.87
2018-03-06T06:36:54.509Z,38.90
2018-03-06T06:39:22.080Z,43.10
2018-03-06T06:41:49.647Z,42.13
2018-03-06T06:44:17.250Z,44.90
2018-03-06T06:46:44.840Z,51.53
2018-03-06T06:49:12.961Z,63.13
2018-03-06T06:51:41.294Z,51.33
2018-03-06T06:54:08.850Z,46.90
2018-03-06T06:56:36.452Z,42.60
2018-03-06T06:59:04.782Z,38.90
2018-03-06T07:01:32.396Z,40.47
2018-03-06T07:03:59.963Z,35.60
2018-03-06T07:06:28.300Z,39.17
2018-03-06T07:08:56.155Z,33.70
2018-03-06T07:11:23.735Z,40.37
2018-03-06T07:13:52.804Z,37.43
2018-03-06T07:16:20.412Z,35.03
2018-03-06T07:18:48.744Z,41.40
2018-03-06T07:21:16.738Z,40.77
2018-03-06T07:23:45.130Z,37.93
2018-03-06T07:26:12.684Z,42.07
2018-03-06T07:28:41.048Z,39.70
2018-03-06T07:31:08.624Z,42.23
2018-03-06T07:33:36.998Z,41.37
2018-03-06T07:36:05.333Z,41.17
2018-03-06T07:38:32.892Z,35.50
2018-03-06T07:41:00.846Z,43.80
2018-03-06T07:43:28.402Z,40.10
2018-03-06T07:45:55.955Z,42.03
2018-03-06T07:48:23.551Z,38.60
2018-03-06T07:50:51.115Z,42.70
2018-03-06T07:53:20.249Z,36.60
2018-03-06T07:55:48.576Z,35.20
2018-03-06T07:58:16.170Z,37.40
2018-03-06T08:00:44.527Z,37.07
2018-03-06T08:03:13.467Z,38.00
2018-03-06T08:05:41.080Z,40.33
2018-03-06T08:08:09.413Z,36.37
2018-03-06T08:10:36.995Z,38.47
2018-03-06T08:13:04.853Z,39.00
2018-03-06T08:15:32.462Z,36.60
2018-03-06T08:18:00.828Z,36.77
2018-03-06T08:20:29.256Z,41.33
2018-03-06T08:22:57.024Z,38.10
2018-03-06T08:25:24.628Z,38.93
2018-03-06T08:27:52.969Z,36.67
2018-03-06T08:30:20.581Z,36.50
2018-03-06T08:32:49.021Z,36.30
2018-03-06T08:35:16.591Z,36.27
2018-03-06T08:37:44.166Z,42.53
2018-03-06T08:40:12.500Z,33.70
2018-03-06T08:42:40.091Z,36.00
2018-03-06T08:45:07.670Z,36.40
2018-03-06T08:47:36.004Z,43.37
2018-03-06T08:50:03.601Z,36.33
2018-03-06T08:52:31.934Z,42.00
2018-03-06T08:54:59.539Z,42.47
2018-03-06T08:57:27.927Z,38.70
2018-03-06T08:59:56.351Z,45.27
2018-03-06T09:02:24.226Z,38.10
2018-03-06T09:04:51.807Z,36.27
2018-03-06T09:07:21.287Z,48.20
2018-03-06T09:09:48.892Z,40.13
2018-03-06T09:12:17.225Z,38.17
2018-03-06T09:14:44.828Z,40.00
2018-03-06T09:17:13.238Z,39.23
2018-03-06T09:19:40.806Z,38.40
2018-03-06T09:22:08.392Z,38.30
2018-03-06T09:24:35.974Z,53.73
2018-03-06T09:27:04.366Z,35.80
2018-03-06T09:29:31.901Z,35.40
2018-03-06T09:32:00.456Z,38.77
2018-03-06T09:34:28.187Z,38.73
2018-03-06T09:36:55.826Z,37.40
2018-03-06T09:39:23.395Z,41.77
2018-03-06T09:41:50.965Z,40.30
2018-03-06T09:44:18.540Z,39.63
2018-03-06T09:46:46.130Z,35.73
2018-03-06T09:49:13.700Z,39.80
2018-03-06T09:51:42.820Z,37.77
2018-03-06T09:54:10.417Z,38.13
2018-03-06T09:56:37.995Z,40.93
2018-03-06T09:59:05.600Z,38.57
2018-03-06T10:01:33.935Z,43.47
2018-03-06T10:04:01.571Z,35.20
2018-03-06T10:06:29.183Z,35.27
2018-03-06T10:08:57.541Z,37.73
2018-03-06T10:11:25.191Z,37.53
2018-03-06T10:13:52.761Z,38.93
2018-03-06T10:16:21.139Z,40.57
2018-03-06T10:18:48.703Z,41.40
2018-03-06T10:21:16.806Z,43.53
2018-03-06T10:23:44.427Z,35.13
2018-03-06T10:26:12.988Z,40.33
2018-03-06T10:28:40.572Z,40.53
2018-03-06T10:31:08.183Z,38.00
2018-03-06T10:33:35.745Z,43.47
2018-03-06T10:36:03.322Z,43.63
2018-03-06T10:38:31.219Z,41.90
2018-03-06T10:40:59.579Z,41.30
2018-03-06T10:43:27.207Z,37.30
2018-03-06T10:45:54.789Z,41.77
2018-03-06T10:48:22.362Z,37.63
2018-03-06T10:50:49.973Z,46.50
2018-03-06T10:53:17.562Z,40.77
2018-03-06T10:55:45.156Z,41.40
2018-03-06T10:58:12.726Z,37.60
2018-03-06T11:00:47.068Z,37.07
2018-03-06T11:03:14.690Z,40.03
2018-03-06T11:05:42.265Z,43.70
2018-03-06T11:08:10.663Z,40.73
2018-03-06T11:10:38.236Z,40.60
2018-03-06T11:13:05.804Z,38.10
2018-03-06T11:15:33.403Z,40.30
2018-03-06T11:18:01.011Z,46.40
2018-03-06T11:20:28.573Z,43.20
2018-03-06T11:22:56.185Z,39.37
2018-03-06T11:25:23.759Z,38.00
2018-03-06T11:27:52.104Z,38.87
2018-03-06T11:30:19.694Z,38.00
2018-03-06T11:32:48.029Z,40.03
2018-03-06T11:35:15.631Z,41.57
2018-03-06T11:37:43.954Z,42.63
2018-03-06T11:40:11.514Z,36.13
2018-03-06T11:42:39.113Z,53.50
2018-03-06T11:45:06.692Z,38.60
2018-03-06T11:47:35.065Z,38.03
2018-03-06T11:50:03.433Z,36.67
2018-03-06T11:52:31.758Z,37.93
2018-03-06T11:54:59.357Z,40.80
2018-03-06T11:57:27.624Z,39.67
2018-03-06T11:59:55.238Z,35.40
2018-03-06T12:02:22.842Z,49.10
2018-03-06T12:04:50.474Z,40.90
2018-03-06T12:07:18.049Z,39.33
2018-03-06T12:09:45.619Z,40.97
2018-03-06T12:12:13.239Z,42.10
2018-03-06T12:14:40.926Z,38.13
2018-03-06T12:17:08.495Z,36.30
2018-03-06T12:19:36.118Z,35.07
2018-03-06T12:22:03.691Z,44.47
2018-03-06T12:24:31.272Z,38.80
2018-03-06T12:26:58.884Z,35.17
2018-03-06T12:29:26.458Z,37.10
2018-03-06T12:31:54.086Z,36.00
2018-03-06T12:34:22.414Z,41.30
2018-03-06T12:36:50.032Z,33.50
2018-03-06T12:39:18.359Z,37.70
2018-03-06T12:41:45.932Z,33.87
2018-03-06T12:44:13.622Z,38.20
2018-03-06T12:46:41.955Z,36.67
2018-03-06T12:49:09.583Z,40.57
2018-03-06T12:51:37.455Z,38.40
2018-03-06T12:54:05.029Z,40.20
2018-03-06T12:56:32.582Z,36.60
2018-03-06T12:59:00.208Z,38.37
2018-03-06T13:01:28.554Z,35.57
2018-03-06T13:03:56.149Z,33.40
2018-03-06T13:06:23.705Z,33.50
2018-03-06T13:08:52.080Z,37.07
2018-03-06T13:11:20.820Z,36.73
2018-03-06T13:13:48.393Z,37.27
2018-03-06T13:16:15.949Z,35.20
2018-03-06T13:18:43.614Z,33.63
2018-03-06T13:21:11.191Z,33.50
2018-03-06T13:23:39.534Z,43.30
2018-03-06T13:26:07.667Z,35.27
2018-03-06T13:28:35.239Z,44.57
2018-03-06T13:31:02.793Z,34.37
2018-03-06T13:33:30.389Z,33.90
2018-03-06T13:35:57.961Z,37.93
2018-03-06T13:38:25.528Z,36.20
2018-03-06T13:40:53.167Z,38.60
2018-03-06T13:43:21.516Z,48.40
2018-03-06T13:45:49.082Z,34.40
2018-03-06T13:48:16.694Z,37.70
2018-03-06T13:50:45.220Z,36.17
2018-03-06T13:53:12.807Z,36.77
2018-03-06T13:55:40.447Z,35.33
2018-03-06T13:58:08.019Z,33.60
2018-03-06T14:00:35.610Z,36.33
2018-03-06T14:03:04.034Z,28.83
2018-03-06T14:05:31.603Z,32.47
2018-03-06T14:07:59.176Z,32.47
2018-03-06T14:10:26.796Z,37.40
2018-03-06T14:12:54.363Z,31.83
2018-03-06T14:15:21.939Z,35.33
2018-03-06T14:17:49.575Z,38.73
2018-03-06T14:20:17.142Z,35.50
2018-03-06T14:22:44.776Z,32.33
2018-03-06T14:25:13.154Z,34.30
2018-03-06T14:27:41.477Z,32.93
2018-03-06T14:30:09.039Z,32.73
2018-03-06T14:32:36.674Z,31.40
2018-03-06T14:35:04.223Z,29.40
2018-03-06T14:37:31.805Z,31.80
2018-03-06T14:39:59.395Z,33.83
2018-03-06T14:42:26.958Z,31.10
2018-03-06T14:44:54.552Z,33.03
2018-03-06T14:47:22.164Z,30.53
2018-03-06T14:49:49.763Z,31.27
2018-03-06T14:52:18.103Z,31.23
2018-03-06T14:54:46.469Z,34.90
2018-03-06T14:57:14.023Z,33.50
2018-03-06T14:59:41.619Z,34.17
2018-03-06T15:02:09.985Z,36.60
2018-03-06T15:04:38.726Z,35.03
2018-03-06T15:07:06.286Z,29.10
2018-03-06T15:09:33.900Z,28.20
2018-03-06T15:12:02.264Z,32.03
2018-03-06T15:14:29.836Z,31.80
2018-03-06T15:16:57.446Z,33.97
2018-03-06T15:19:25.177Z,32.50
2018-03-06T15:21:52.783Z,32.70
2018-03-06T15:24:20.390Z,29.77
2018-03-06T15:26:48.736Z,31.83
2018-03-06T15:29:16.369Z,32.83
2018-03-06T15:31:43.975Z,26.20
2018-03-06T15:34:11.534Z,29.30
2018-03-06T15:36:39.099Z,32.50
2018-03-06T15:39:07.470Z,28.50
2018-03-06T15:41:35.060Z,31.17
2018-03-06T15:44:02.622Z,31.30
2018-03-06T15:46:30.440Z,31.07
2018-03-06T15:48:58.136Z,27.73
2018-03-06T15:51:26.457Z,31.03
2018-03-06T15:53:54.067Z,31.47
2018-03-06T15:56:22.418Z,31.53
2018-03-06T15:58:49.995Z,32.90
2018-03-06T16:01:18.373Z,31.87
2018-03-06T16:03:46.723Z,33.20
2018-03-06T16:06:14.303Z,34.83
2018-03-06T16:08:41.916Z,30.43
2018-03-06T16:11:09.756Z,33.77
2018-03-06T16:13:37.368Z,34.13
2018-03-06T16:16:06.509Z,35.20
2018-03-06T16:18:34.073Z,33.80
2018-03-06T16:21:01.982Z,32.50
2018-03-06T16:23:29.714Z,33.93
2018-03-06T16:25:57.303Z,35.80
2018-03-06T16:28:24.871Z,35.97
2018-03-06T16:30:52.489Z,36.10
2018-03-06T16:33:20.025Z,34.57
2018-03-06T16:35:48.358Z,36.93
2018-03-06T16:38:16.041Z,35.57
2018-03-06T16:40:43.612Z,38.87
2018-03-06T16:43:11.987Z,39.40
2018-03-06T16:45:40.403Z,36.07
2018-03-06T16:48:08.020Z,35.73
2018-03-06T16:50:36.378Z,38.90
2018-03-06T16:53:03.982Z,41.13
2018-03-06T16:55:31.566Z,41.00
2018-03-06T16:57:59.139Z,42.27
2018-03-06T17:00:26.749Z,30.90
2018-03-06T17:02:55.097Z,36.67
2018-03-06T17:05:22.677Z,36.17
2018-03-06T17:07:51.098Z,37.47
2018-03-06T17:10:18.850Z,38.03
2018-03-06T17:12:46.422Z,46.13
2018-03-06T17:15:14.063Z,39.60
2018-03-06T17:17:41.673Z,46.83
2018-03-06T17:20:09.261Z,49.20
2018-03-06T17:22:37.659Z,42.27
2018-03-06T17:25:05.246Z,39.73
2018-03-06T17:27:32.815Z,39.10
2018-03-06T17:30:00.472Z,39.03
2018-03-06T17:32:28.042Z,37.00
2018-03-06T17:34:55.623Z,38.90
2018-03-06T17:37:23.297Z,45.67
2018-03-06T17:39:50.836Z,41.17
2018-03-06T17:42:19.158Z,41.67
2018-03-06T17:44:46.781Z,42.87
2018-03-06T17:47:15.120Z,44.77
2018-03-06T17:49:42.700Z,45.53
2018-03-06T17:52:10.313Z,47.80
2018-03-06T17:54:37.896Z,42.30
2018-03-06T17:57:05.489Z,39.67
2018-03-06T17:59:33.107Z,37.80
2018-03-06T18:02:00.719Z,42.23
2018-03-06T18:04:28.326Z,45.13
2018-03-06T18:06:55.901Z,45.60
2018-03-06T18:09:23.567Z,41.13
2018-03-06T18:11:51.142Z,44.37
2018-03-06T18:14:19.528Z,46.60
2018-03-06T18:16:47.096Z,44.83
2018-03-06T18:19:15.487Z,43.87
2018-03-06T18:21:43.874Z,44.10
2018-03-06T18:24:11.443Z,44.50
2018-03-06T18:26:39.046Z,45.50
2018-03-06T18:29:06.741Z,51.20
2018-03-06T18:31:35.080Z,48.00
2018-03-06T18:34:02.647Z,41.10
2018-03-06T18:36:30.255Z,47.83
2018-03-06T18:38:57.815Z,50.40
2018-03-06T18:41:25.402Z,55.87
2018-03-06T18:43:53.024Z,51.73
2018-03-06T18:46:21.377Z,51.23
2018-03-06T18:48:48.961Z,57.10
2018-03-06T18:51:16.970Z,47.13
2018-03-06T18:53:44.538Z,56.03
2018-03-06T18:56:12.104Z,54.90
2018-03-06T18:58:39.720Z,57.17
2018-03-06T19:01:30.973Z,54.37
2018-03-06T19:04:10.424Z,51.90
2018-03-06T19:06:53.274Z,62.07
2018-03-06T19:09:20.912Z,57.83
2018-03-06T19:11:49.276Z,59.90
2018-03-06T19:14:16.907Z,54.33
2018-03-06T19:16:44.818Z,59.90
2018-03-06T19:19:13.171Z,59.83
2018-03-06T19:21:40.755Z,57.10
2018-03-06T19:24:08.691Z,50.93
2018-03-06T19:26:36.279Z,56.17
2018-03-06T19:29:03.849Z,57.60
2018-03-06T19:31:32.228Z,61.20
2018-03-06T19:34:00.603Z,55.23
2018-03-06T19:36:29.240Z,69.03
2018-03-06T19:38:56.871Z,57.97
2018-03-06T19:41:24.456Z,54.93
2018-03-06T19:43:52.086Z,57.07
2018-03-06T19:46:19.682Z,60.57
2018-03-06T19:48:47.282Z,55.93
2018-03-06T19:51:15.654Z,56.00
2018-03-06T19:53:43.277Z,57.07
2018-03-06T19:56:10.865Z,61.40
2018-03-06T19:58:38.849Z,55.03
2018-03-06T20:01:07.462Z,62.73
2018-03-06T20:03:35.578Z,62.03
2018-03-06T20:06:03.171Z,64.97
2018-03-06T20:08:31.538Z,63.97
2018-03-06T20:10:59.896Z,67.10
2018-03-06T20:13:27.480Z,65.67
2018-03-06T20:15:55.864Z,65.47
2018-03-06T20:18:24.253Z,60.83
2018-03-06T20:20:51.838Z,64.70
2018-03-06T20:23:19.445Z,61.77
2018-03-06T20:25:53.386Z,69.87
2018-03-06T20:28:21.011Z,68.63
2018-03-06T20:30:54.230Z,58.40
2018-03-06T20:33:21.851Z,63.33
2018-03-06T20:35:50.993Z,62.67
2018-03-06T20:38:24.151Z,56.67
2018-03-06T20:40:52.524Z,58.47
2018-03-06T20:43:20.104Z,58.03
2018-03-06T20:45:54.129Z,63.77
2018-03-06T20:48:21.714Z,60.67
2018-03-06T20:50:49.303Z,59.13
2018-03-06T20:53:23.373Z,60.47
2018-03-06T20:55:51.020Z,60.07
2018-03-06T20:58:18.626Z,61.93
2018-03-06T21:00:46.736Z,62.30
2018-03-06T21:03:15.115Z,61.50
2018-03-06T21:05:43.449Z,62.67
2018-03-06T21:08:11.087Z,59.40
2018-03-06T21:10:38.645Z,63.73
2018-03-06T21:13:06.336Z,61.43
2018-03-06T21:15:35.448Z,63.53
2018-03-06T21:18:03.012Z,60.40
2018-03-06T21:20:31.359Z,60.93
2018-03-06T21:22:58.997Z,66.20
2018-03-06T21:25:26.571Z,64.43
2018-03-06T21:27:54.131Z,61.47
2018-03-06T21:30:21.752Z,67.10
2018-03-06T21:32:49.315Z,62.73
2018-03-06T21:35:16.904Z,66.33
2018-03-06T21:37:44.887Z,64.30
2018-03-06T21:40:12.454Z,68.67
2018-03-06T21:42:41.546Z,72.80
2018-03-06T21:45:09.509Z,73.23
2018-03-06T21:47:37.088Z,65.23
2018-03-06T21:50:06.161Z,65.37
2018-03-06T21:52:33.781Z,66.57
2018-03-06T21:55:01.328Z,69.67
2018-03-06T21:57:29.086Z,76.50
2018-03-06T21:59:57.441Z,63.60
2018-03-06T22:02:25.767Z,64.07
2018-03-06T22:04:53.638Z,66.70
2018-03-06T22:07:21.234Z,70.23
2018-03-06T22:09:48.785Z,67.97
2018-03-06T22:12:16.388Z,66.07
2018-03-06T22:14:44.725Z,72.57
2018-03-06T22:17:12.286Z,69.07
2018-03-06T22:19:39.888Z,71.07
2018-03-06T22:22:07.752Z,72.37
2018-03-06T22:24:35.327Z,69.07
2018-03-06T22:27:03.421Z,75.60
2018-03-06T22:29:31.301Z,68.50
2018-03-06T22:31:58.862Z,68.30
2018-03-06T22:34:26.432Z,71.97
2018-03-06T22:36:54.045Z,68.13
2018-03-06T22:39:21.711Z,76.40
2018-03-06T22:41:49.297Z,67.93
2018-03-06T22:44:16.909Z,63.43
2018-03-06T22:46:44.521Z,75.97
2018-03-06T22:49:12.095Z,70.00
2018-03-06T22:51:39.666Z,72.10
2018-03-06T22:54:08.533Z,70.13
2018-03-06T22:56:37.613Z,74.33
2018-03-06T22:59:05.180Z,74.80
2018-03-06T23:01:33.570Z,73.10
2018-03-06T23:04:01.240Z,76.63
2018-03-06T23:06:29.575Z,79.20
2018-03-06T23:08:57.171Z,78.10
2018-03-06T23:11:25.516Z,69.03
2018-03-06T23:13:53.095Z,73.93
2018-03-06T23:16:20.958Z,70.87
2018-03-06T23:18:48.532Z,70.20
2018-03-06T23:21:17.353Z,65.50
2018-03-06T23:23:45.265Z,69.70
2018-03-06T23:26:12.839Z,66.77
2018-03-06T23:28:41.176Z,67.43
2018-03-06T23:31:09.134Z,75.97
2018-03-06T23:33:36.693Z,64.67
2018-03-06T23:36:04.237Z,70.70
2018-03-06T23:38:32.906Z,70.77
2018-03-06T23:41:01.460Z,70.57
2018-03-06T23:43:29.913Z,71.00
2018-03-06T23:45:57.664Z,73.50
2018-03-06T23:48:25.312Z,72.80
2018-03-06T23:50:52.895Z,71.63
2018-03-06T23:53:20.746Z,69.03
2018-03-06T23:55:48.310Z,64.47
2018-03-06T23:58:15.886Z,73.40
